sensor_id;sensor_type;location;lat;lon;timestamp;temperature;humidity
6178;DHT22;3122;48.208;11.174;2023-03-26T00:02:54;6.50;1.00
6178;DHT22;3122;48.208;11.174;2023-03-26T00:07:56;6.40;1.00
6178;DHT22;3122;48.208;11.174;2023-03-26T00:12:57;6.40;1.00
6178;DHT22;3122;48.208;11.174;2023-03-26T00:17:58;6.60;1.00
6178;DHT22;3122;48.208;11.174;2023-03-26T00:22:59;6.50;1.00
6178;DHT22;3122;48.208;11.174;2023-03-26T00:28:03;6.40;1.00
6178;DHT22;3122;48.208;11.174;2023-03-26T00:33:05;6.30;1.00
6178;DHT22;3122;48.208;11.174;2023-03-26T00:38:06;6.30;1.00
6178;DHT22;3122;48.208;11.174;2023-03-26T00:43:11;6.20;1.00
6178;DHT22;3122;48.208;11.174;2023-03-26T00:48:19;6.10;1.00
6178;DHT22;3122;48.208;11.174;2023-03-26T00:53:19;6.10;1.00
6178;DHT22;3122;48.208;11.174;2023-03-26T00:58:21;6.10;1.00
6178;DHT22;3122;48.208;11.174;2023-03-26T01:03:22;6.00;1.00
6178;DHT22;3122;48.208;11.174;2023-03-26T01:08:43;6.10;1.00
6178;DHT22;3122;48.208;11.174;2023-03-26T01:13:49;5.90;1.00
6178;DHT22;3122;48.208;11.174;2023-03-26T01:18:51;5.80;1.00
6178;DHT22;3122;48.208;11.174;2023-03-26T01:29:05;5.50;1.00
6178;DHT22;3122;48.208;11.174;2023-03-26T01:34:27;5.50;1.00
6178;DHT22;3122;48.208;11.174;2023-03-26T01:39:36;5.50;1.00
6178;DHT22;3122;48.208;11.174;2023-03-26T01:44:54;5.50;1.00
6178;DHT22;3122;48.208;11.174;2023-03-26T01:49:56;5.50;1.00
6178;DHT22;3122;48.208;11.174;2023-03-26T01:54:56;5.50;1.00
6178;DHT22;3122;48.208;11.174;2023-03-26T02:00:29;5.40;1.00
6178;DHT22;3122;48.208;11.174;2023-03-26T02:05:36;5.40;1.00
6178;DHT22;3122;48.208;11.174;2023-03-26T02:10:41;5.40;1.00
6178;DHT22;3122;48.208;11.174;2023-03-26T02:16:04;5.50;1.00
6178;DHT22;3122;48.208;11.174;2023-03-26T02:21:12;5.40;1.00
6178;DHT22;3122;48.208;11.174;2023-03-26T02:26:15;5.50;1.00
6178;DHT22;3122;48.208;11.174;2023-03-26T02:31:16;5.40;1.00
6178;DHT22;3122;48.208;11.174;2023-03-26T02:36:18;5.40;1.00
6178;DHT22;3122;48.208;11.174;2023-03-26T02:41:23;5.40;1.00
6178;DHT22;3122;48.208;11.174;2023-03-26T02:46:24;5.30;1.00
6178;DHT22;3122;48.208;11.174;2023-03-26T02:51:24;5.20;1.00
6178;DHT22;3122;48.208;11.174;2023-03-26T02:56:27;5.30;1.00
6178;DHT22;3122;48.208;11.174;2023-03-26T03:01:27;5.20;1.00
6178;DHT22;3122;48.208;11.174;2023-03-26T03:06:30;5.10;1.00
6178;DHT22;3122;48.208;11.174;2023-03-26T03:11:31;5.00;1.00
6178;DHT22;3122;48.208;11.174;2023-03-26T03:16:32;5.00;1.00
6178;DHT22;3122;48.208;11.174;2023-03-26T03:21:32;5.00;1.00
6178;DHT22;3122;48.208;11.174;2023-03-26T03:26:33;5.00;1.00
6178;DHT22;3122;48.208;11.174;2023-03-26T03:31:35;4.90;1.00
6178;DHT22;3122;48.208;11.174;2023-03-26T03:36:36;4.90;1.00
6178;DHT22;3122;48.208;11.174;2023-03-26T03:41:37;4.90;1.00
6178;DHT22;3122;48.208;11.174;2023-03-26T03:46:38;4.90;1.00
6178;DHT22;3122;48.208;11.174;2023-03-26T03:51:38;4.90;1.00
6178;DHT22;3122;48.208;11.174;2023-03-26T03:56:39;4.90;1.00
6178;DHT22;3122;48.208;11.174;2023-03-26T04:01:40;5.00;1.00
6178;DHT22;3122;48.208;11.174;2023-03-26T04:06:42;5.00;1.00
6178;DHT22;3122;48.208;11.174;2023-03-26T04:11:43;5.00;1.00
6178;DHT22;3122;48.208;11.174;2023-03-26T04:16:44;5.00;1.00
6178;DHT22;3122;48.208;11.174;2023-03-26T04:21:44;5.10;1.00
6178;DHT22;3122;48.208;11.174;2023-03-26T04:26:45;5.20;1.00
6178;DHT22;3122;48.208;11.174;2023-03-26T04:31:55;5.30;1.00
6178;DHT22;3122;48.208;11.174;2023-03-26T04:37:05;5.40;1.00
6178;DHT22;3122;48.208;11.174;2023-03-26T04:42:08;5.40;1.00
6178;DHT22;3122;48.208;11.174;2023-03-26T04:47:09;5.30;1.00
6178;DHT22;3122;48.208;11.174;2023-03-26T04:52:10;5.30;1.00
6178;DHT22;3122;48.208;11.174;2023-03-26T04:57:21;5.40;1.00
6178;DHT22;3122;48.208;11.174;2023-03-26T05:02:23;5.40;1.00
6178;DHT22;3122;48.208;11.174;2023-03-26T05:07:25;5.30;1.00
6178;DHT22;3122;48.208;11.174;2023-03-26T05:12:25;5.40;1.00
6178;DHT22;3122;48.208;11.174;2023-03-26T05:17:26;5.40;1.00
6178;DHT22;3122;48.208;11.174;2023-03-26T05:22:30;5.40;1.00
6178;DHT22;3122;48.208;11.174;2023-03-26T05:27:32;5.50;1.00
6178;DHT22;3122;48.208;11.174;2023-03-26T05:32:33;5.50;1.00
6178;DHT22;3122;48.208;11.174;2023-03-26T05:37:34;5.50;1.00
6178;DHT22;3122;48.208;11.174;2023-03-26T05:42:34;5.60;1.00
6178;DHT22;3122;48.208;11.174;2023-03-26T05:47:35;5.60;1.00
6178;DHT22;3122;48.208;11.174;2023-03-26T05:52:36;5.70;1.00
6178;DHT22;3122;48.208;11.174;2023-03-26T05:57:38;5.70;1.00
6178;DHT22;3122;48.208;11.174;2023-03-26T06:02:39;5.80;1.00
6178;DHT22;3122;48.208;11.174;2023-03-26T06:07:41;5.90;1.00
6178;DHT22;3122;48.208;11.174;2023-03-26T06:12:42;6.00;1.00
6178;DHT22;3122;48.208;11.174;2023-03-26T06:17:42;6.20;1.00
6178;DHT22;3122;48.208;11.174;2023-03-26T06:22:43;6.50;1.00
6178;DHT22;3122;48.208;11.174;2023-03-26T06:27:43;6.80;1.00
6178;DHT22;3122;48.208;11.174;2023-03-26T06:32:44;6.80;1.00
6178;DHT22;3122;48.208;11.174;2023-03-26T06:37:45;6.90;1.00
6178;DHT22;3122;48.208;11.174;2023-03-26T06:42:45;7.00;1.00
6178;DHT22;3122;48.208;11.174;2023-03-26T06:47:46;7.10;1.00
6178;DHT22;3122;48.208;11.174;2023-03-26T06:52:47;7.00;1.00
6178;DHT22;3122;48.208;11.174;2023-03-26T06:57:52;6.90;1.00
6178;DHT22;3122;48.208;11.174;2023-03-26T07:02:53;6.80;1.00
6178;DHT22;3122;48.208;11.174;2023-03-26T07:07:53;6.80;1.00
6178;DHT22;3122;48.208;11.174;2023-03-26T07:12:54;6.80;1.00
6178;DHT22;3122;48.208;11.174;2023-03-26T07:17:55;6.70;1.00
6178;DHT22;3122;48.208;11.174;2023-03-26T07:23:06;6.70;1.00
6178;DHT22;3122;48.208;11.174;2023-03-26T07:28:16;6.70;1.00
6178;DHT22;3122;48.208;11.174;2023-03-26T07:33:43;6.70;1.00
6178;DHT22;3122;48.208;11.174;2023-03-26T07:49:36;6.70;1.00
6178;DHT22;3122;48.208;11.174;2023-03-26T07:54:37;6.70;5.60
6178;DHT22;3122;48.208;11.174;2023-03-26T07:59:46;6.80;10.90
6178;DHT22;3122;48.208;11.174;2023-03-26T08:05:25;6.80;13.40
6178;DHT22;3122;48.208;11.174;2023-03-26T08:16:06;6.80;16.30
6178;DHT22;3122;48.208;11.174;2023-03-26T08:21:22;6.80;19.10
6178;DHT22;3122;48.208;11.174;2023-03-26T08:31:36;6.90;16.90
6178;DHT22;3122;48.208;11.174;2023-03-26T08:36:38;6.90;6.80
6178;DHT22;3122;48.208;11.174;2023-03-26T08:57:41;7.00;19.70
6178;DHT22;3122;48.208;11.174;2023-03-26T09:30:32;6.80;21.60
6178;DHT22;3122;48.208;11.174;2023-03-26T10:03:01;7.00;17.00
6178;DHT22;3122;48.208;11.174;2023-03-26T10:34:02;7.40;39.60
6178;DHT22;3122;48.208;11.174;2023-03-26T10:55:18;7.80;33.60
6178;DHT22;3122;48.208;11.174;2023-03-26T11:00:23;7.70;30.50
6178;DHT22;3122;48.208;11.174;2023-03-26T11:16:08;7.80;28.60
6178;DHT22;3122;48.208;11.174;2023-03-26T11:32:36;8.00;24.50
6178;DHT22;3122;48.208;11.174;2023-03-26T11:37:32;8.10;20.20
6178;DHT22;3122;48.208;11.174;2023-03-26T11:42:33;8.40;20.00
6178;DHT22;3122;48.208;11.174;2023-03-26T11:47:43;8.40;16.60
6178;DHT22;3122;48.208;11.174;2023-03-26T11:52:45;8.30;16.20
6178;DHT22;3122;48.208;11.174;2023-03-26T11:57:52;8.30;15.40
6178;DHT22;3122;48.208;11.174;2023-03-26T12:02:58;8.60;16.20
6178;DHT22;3122;48.208;11.174;2023-03-26T12:08:02;8.90;11.80
6178;DHT22;3122;48.208;11.174;2023-03-26T12:13:43;8.90;12.70
6178;DHT22;3122;48.208;11.174;2023-03-26T12:18:44;9.00;14.70
6178;DHT22;3122;48.208;11.174;2023-03-26T12:24:00;9.30;15.90
6178;DHT22;3122;48.208;11.174;2023-03-26T12:29:10;9.30;11.70
6178;DHT22;3122;48.208;11.174;2023-03-26T12:34:19;9.30;11.80
6178;DHT22;3122;48.208;11.174;2023-03-26T12:44:43;9.20;10.50
6178;DHT22;3122;48.208;11.174;2023-03-26T12:49:45;9.20;8.70
6178;DHT22;3122;48.208;11.174;2023-03-26T13:00:51;9.10;7.90
6178;DHT22;3122;48.208;11.174;2023-03-26T13:06:11;9.00;8.00
6178;DHT22;3122;48.208;11.174;2023-03-26T13:33:01;9.10;5.80
6178;DHT22;3122;48.208;11.174;2023-03-26T13:38:14;9.00;5.40
6178;DHT22;3122;48.208;11.174;2023-03-26T14:00:09;6.50;2.60
6178;DHT22;3122;48.208;11.174;2023-03-26T14:05:35;6.50;3.40
6178;DHT22;3122;48.208;11.174;2023-03-26T14:10:46;6.70;3.70
6178;DHT22;3122;48.208;11.174;2023-03-26T14:15:54;6.80;3.80
6178;DHT22;3122;48.208;11.174;2023-03-26T14:42:23;7.60;1.00
6178;DHT22;3122;48.208;11.174;2023-03-26T14:47:24;7.80;1.00
6178;DHT22;3122;48.208;11.174;2023-03-26T15:57:16;9.10;1.00
6178;DHT22;3122;48.208;11.174;2023-03-26T16:03:25;9.40;1.00
6178;DHT22;3122;48.208;11.174;2023-03-26T16:18:40;9.00;1.00
6178;DHT22;3122;48.208;11.174;2023-03-26T16:39:15;8.70;1.00
6178;DHT22;3122;48.208;11.174;2023-03-26T16:44:27;8.70;1.00
6178;DHT22;3122;48.208;11.174;2023-03-26T16:55:11;8.70;1.00
6178;DHT22;3122;48.208;11.174;2023-03-26T17:16:33;8.20;1.00
6178;DHT22;3122;48.208;11.174;2023-03-26T17:21:59;8.10;1.00
6178;DHT22;3122;48.208;11.174;2023-03-26T17:32:20;7.90;1.00
6178;DHT22;3122;48.208;11.174;2023-03-26T17:42:32;7.50;1.00
6178;DHT22;3122;48.208;11.174;2023-03-26T17:47:44;7.10;1.00
6178;DHT22;3122;48.208;11.174;2023-03-26T17:58:13;6.80;1.00
6178;DHT22;3122;48.208;11.174;2023-03-26T18:03:26;6.70;1.00
6178;DHT22;3122;48.208;11.174;2023-03-26T18:19:10;6.40;1.00
6178;DHT22;3122;48.208;11.174;2023-03-26T18:24:21;6.10;1.00
6178;DHT22;3122;48.208;11.174;2023-03-26T18:29:30;6.00;1.00
6178;DHT22;3122;48.208;11.174;2023-03-26T18:34:32;5.90;1.00
6178;DHT22;3122;48.208;11.174;2023-03-26T18:39:33;5.80;1.00
6178;DHT22;3122;48.208;11.174;2023-03-26T18:44:34;5.70;1.00
6178;DHT22;3122;48.208;11.174;2023-03-26T18:49:43;5.80;1.00
6178;DHT22;3122;48.208;11.174;2023-03-26T18:54:47;5.80;1.00
6178;DHT22;3122;48.208;11.174;2023-03-26T18:59:51;5.80;1.00
6178;DHT22;3122;48.208;11.174;2023-03-26T19:04:51;5.70;1.00
6178;DHT22;3122;48.208;11.174;2023-03-26T19:09:53;5.70;1.00
6178;DHT22;3122;48.208;11.174;2023-03-26T19:15:10;5.70;1.00
6178;DHT22;3122;48.208;11.174;2023-03-26T19:20:48;5.70;1.00
6178;DHT22;3122;48.208;11.174;2023-03-26T19:25:52;5.70;1.00
6178;DHT22;3122;48.208;11.174;2023-03-26T19:30:57;5.70;1.00
6178;DHT22;3122;48.208;11.174;2023-03-26T19:41:19;5.80;1.00
6178;DHT22;3122;48.208;11.174;2023-03-26T19:46:21;5.70;1.00
6178;DHT22;3122;48.208;11.174;2023-03-26T19:51:31;5.70;1.00
6178;DHT22;3122;48.208;11.174;2023-03-26T19:56:32;5.60;1.00
6178;DHT22;3122;48.208;11.174;2023-03-26T20:01:33;5.60;1.00
6178;DHT22;3122;48.208;11.174;2023-03-26T20:06:33;5.60;1.00
6178;DHT22;3122;48.208;11.174;2023-03-26T20:11:35;5.60;1.00
6178;DHT22;3122;48.208;11.174;2023-03-26T20:16:38;5.60;1.00
6178;DHT22;3122;48.208;11.174;2023-03-26T20:21:38;5.50;1.00
6178;DHT22;3122;48.208;11.174;2023-03-26T20:26:40;5.50;1.00
6178;DHT22;3122;48.208;11.174;2023-03-26T20:31:41;5.30;1.00
6178;DHT22;3122;48.208;11.174;2023-03-26T20:36:42;5.20;1.00
6178;DHT22;3122;48.208;11.174;2023-03-26T20:41:46;5.10;1.00
6178;DHT22;3122;48.208;11.174;2023-03-26T20:46:48;5.10;1.00
6178;DHT22;3122;48.208;11.174;2023-03-26T20:51:49;5.10;1.00
6178;DHT22;3122;48.208;11.174;2023-03-26T20:56:51;5.10;1.00
6178;DHT22;3122;48.208;11.174;2023-03-26T21:01:53;5.10;1.00
6178;DHT22;3122;48.208;11.174;2023-03-26T21:06:55;5.10;1.00
6178;DHT22;3122;48.208;11.174;2023-03-26T21:12:04;5.00;1.00
6178;DHT22;3122;48.208;11.174;2023-03-26T21:17:07;5.00;1.00
6178;DHT22;3122;48.208;11.174;2023-03-26T21:28:04;4.90;1.00
6178;DHT22;3122;48.208;11.174;2023-03-26T21:33:07;4.80;1.00
6178;DHT22;3122;48.208;11.174;2023-03-26T21:38:09;4.80;1.00
6178;DHT22;3122;48.208;11.174;2023-03-26T21:43:10;4.90;1.00
6178;DHT22;3122;48.208;11.174;2023-03-26T21:48:11;4.90;1.00
6178;DHT22;3122;48.208;11.174;2023-03-26T21:53:13;4.90;1.00
6178;DHT22;3122;48.208;11.174;2023-03-26T22:03:29;4.80;1.00
6178;DHT22;3122;48.208;11.174;2023-03-26T22:08:35;4.80;1.00
6178;DHT22;3122;48.208;11.174;2023-03-26T22:13:38;4.90;1.00
6178;DHT22;3122;48.208;11.174;2023-03-26T22:18:38;4.80;1.00
6178;DHT22;3122;48.208;11.174;2023-03-26T22:23:39;4.80;1.00
6178;DHT22;3122;48.208;11.174;2023-03-26T22:28:39;4.90;1.00
6178;DHT22;3122;48.208;11.174;2023-03-26T22:33:40;4.80;1.00
6178;DHT22;3122;48.208;11.174;2023-03-26T22:38:41;4.80;1.00
6178;DHT22;3122;48.208;11.174;2023-03-26T22:43:41;4.80;1.00
6178;DHT22;3122;48.208;11.174;2023-03-26T22:48:42;4.70;1.00
6178;DHT22;3122;48.208;11.174;2023-03-26T22:53:45;4.80;1.00
6178;DHT22;3122;48.208;11.174;2023-03-26T22:58:45;4.70;1.00
6178;DHT22;3122;48.208;11.174;2023-03-26T23:03:47;4.70;1.00
6178;DHT22;3122;48.208;11.174;2023-03-26T23:08:48;4.70;1.00
6178;DHT22;3122;48.208;11.174;2023-03-26T23:13:49;4.70;1.00
6178;DHT22;3122;48.208;11.174;2023-03-26T23:18:50;4.70;1.00
6178;DHT22;3122;48.208;11.174;2023-03-26T23:23:51;4.70;1.00
6178;DHT22;3122;48.208;11.174;2023-03-26T23:28:51;4.70;1.00
6178;DHT22;3122;48.208;11.174;2023-03-26T23:33:52;4.60;1.00
6178;DHT22;3122;48.208;11.174;2023-03-26T23:38:53;4.60;1.00
6178;DHT22;3122;48.208;11.174;2023-03-26T23:43:54;4.60;1.00
6178;DHT22;3122;48.208;11.174;2023-03-26T23:48:54;4.50;1.00
6178;DHT22;3122;48.208;11.174;2023-03-26T23:53:59;4.50;1.00
6178;DHT22;3122;48.208;11.174;2023-03-26T23:59:00;4.40;1.00
